Terminal Aerodrome Forecast
Issued by NWS Sterling, VA

Current Version | Previous Version | Graphics & Text | Print | Product List | Glossary On
Versions: 1 2 3 4 5 6 7 8 9 10 11 12 13 14 15 16 17 18 19 20 21 22 23 24 25 26 27
000
FTUS41 KLWX 270900 AAA
TAFIAD
TAF AMD
KIAD 270900Z 2709/2812 03010KT P6SM OVC015
     FM271000 03010KT P6SM -SHRA OVC008
     FM271400 05007KT P6SM OVC008
     FM271600 06005KT P6SM OVC015
     FM271900 09004KT P6SM OVC025
     FM280600 00000KT 5SM -SHRA BR OVC015=

USA.gov is the U.S. government's official web portal to all federal, state and local government web resources and services.